Time;durP1;ratioP1;P1;durP2;ratioP2;P2;SDS_P1;SDS_P2;PMS_P1;PMS_P2;Temp;Humidity;BMP_temperature;BMP_pressure;BME280_temperature;BME280_humidity;BME280_pressure;Samples;Min_cycle;Max_cycle;Signal;HPM_P1;HPM_P2
2022/09/13 00:02:06;;;;;;;21.15;11.15;;;;;;;20.78;57.36;101053.63;5212161;28;20519;-55
2022/09/13 00:04:39;;;;;;;16.33;11.05;;;;;;;20.77;57.38;101055.47;5202682;28;20499;-51
2022/09/13 00:07:12;;;;;;;18.38;9.63;;;;;;;20.79;57.28;101044.56;5199538;28;20496;-52
2022/09/13 00:09:45;;;;;;;13.57;8.85;;;;;;;20.72;57.37;101056.13;5217881;28;20047;-53
2022/09/13 00:12:17;;;;;;;16.42;9.23;;;;;;;20.72;57.52;101066.88;5212574;28;20059;-55
2022/09/13 00:15:09;;;;;;;15.85;9.63;;;;;;;20.65;57.52;101068.72;5217734;28;20693;-54
2022/09/13 00:17:43;;;;;;;17.58;9.13;;;;;;;20.65;57.54;101068.72;5211490;28;20540;-50
2022/09/13 00:20:15;;;;;;;18.90;8.68;;;;;;;20.68;57.63;101065.63;5200202;28;20432;-53
2022/09/13 00:22:48;;;;;;;10.18;7.53;;;;;;;20.68;57.72;101052.19;5215902;28;20044;-55
2022/09/13 00:25:21;;;;;;;13.48;7.88;;;;;;;20.62;57.57;101046.84;5196411;28;20045;-50
2022/09/13 00:27:53;;;;;;;10.18;7.68;;;;;;;20.59;57.64;101032.00;5204031;28;20048;-51
2022/09/13 00:30:26;;;;;;;17.35;8.55;;;;;;;20.60;57.78;101036.34;5203935;28;20052;-54
2022/09/13 00:33:03;;;;;;;16.25;8.18;;;;;;;20.55;57.72;101038.84;5204154;28;20040;-51
2022/09/13 00:35:35;;;;;;;9.50;7.63;;;;;;;20.51;57.65;101026.84;5191363;28;20051;-51
2022/09/13 00:38:08;;;;;;;11.13;6.82;;;;;;;20.54;57.97;101037.19;5202463;28;20472;-53
2022/09/13 00:40:40;;;;;;;17.83;7.85;;;;;;;20.49;57.58;101023.53;5196448;28;20041;-51
2022/09/13 00:43:18;;;;;;;12.80;7.00;;;;;;;20.52;57.64;101033.06;5199366;28;20048;-50
2022/09/13 00:45:51;;;;;;;12.48;7.28;;;;;;;20.49;57.93;101021.69;5182791;28;20049;-52
2022/09/13 00:48:25;;;;;;;10.55;6.88;;;;;;;20.49;57.94;101026.22;5202938;28;20400;-52
2022/09/13 00:50:57;;;;;;;13.60;7.72;;;;;;;20.44;58.02;101024.19;5204023;28;20396;-53
2022/09/13 00:53:33;;;;;;;16.35;8.30;;;;;;;20.45;58.08;101035.75;5202127;28;20044;-51
2022/09/13 00:56:11;;;;;;;18.10;8.02;;;;;;;20.38;58.09;101016.16;5195589;28;20037;-47
2022/09/13 00:58:50;;;;;;;13.13;6.50;;;;;;;20.44;58.19;101026.03;5195502;28;20045;-54
2022/09/13 01:01:28;;;;;;;11.10;7.57;;;;;;;20.46;58.07;101030.16;5198937;28;20066;-47
2022/09/13 01:04:04;;;;;;;17.30;8.57;;;;;;;20.41;58.22;101021.09;5196084;28;20040;-52
2022/09/13 01:06:39;;;;;;;18.33;8.90;;;;;;;20.40;58.11;101014.06;5183684;28;20075;-52
2022/09/13 01:09:12;;;;;;;13.63;9.13;;;;;;;20.38;58.06;101016.16;5197761;28;20067;-53
2022/09/13 01:11:49;;;;;;;12.25;8.77;;;;;;;20.40;58.21;101014.06;5185574;28;20048;-54
2022/09/13 01:14:48;;;;;;;10.63;8.25;;;;;;;20.43;58.24;101024.38;5189783;28;20493;-50
2022/09/13 01:17:20;;;;;;;21.48;9.55;;;;;;;20.32;58.37;101017.00;5181754;28;20072;-52
2022/09/13 01:19:55;;;;;;;13.35;8.88;;;;;;;20.30;58.49;101011.00;5192050;28;20056;-55
2022/09/13 01:23:22;;;;;;;13.40;8.85;;;;;;;20.38;58.51;101021.53;5176685;28;20044;-54
2022/09/13 01:26:26;;;;;;;19.50;9.65;;;;;;;20.28;58.58;101013.88;5176784;28;20412;-52
2022/09/13 01:29:33;;;;;;;;;;;;;;;20.31;58.56;101020.69;5182878;28;20044;-50
2022/09/13 01:32:18;;;;;;;21.25;10.80;;;;;;;20.25;58.67;101015.16;5146495;28;19951;-49
2022/09/13 01:35:03;;;;;;;16.80;9.00;;;;;;;20.19;58.85;100991.84;5176475;28;20388;-50
2022/09/13 01:37:51;;;;;;;18.48;11.00;;;;;;;20.23;58.68;101001.13;5188565;28;20041;-49
2022/09/13 01:40:44;;;;;;;14.75;9.05;;;;;;;20.22;58.68;100999.47;5184199;28;20067;-50
2022/09/13 01:43:33;;;;;;;13.15;8.15;;;;;;;20.26;58.66;100998.03;5189940;28;20390;-52
2022/09/13 01:46:09;;;;;;;10.90;6.97;;;;;;;20.20;58.84;100990.81;5183273;28;20489;-50
2022/09/13 01:48:56;;;;;;;14.63;7.50;;;;;;;20.28;58.67;101000.47;5193026;28;20071;-52
2022/09/13 01:51:33;;;;;;;12.98;7.97;;;;;;;20.30;58.81;101003.78;5191216;28;20095;-48
2022/09/13 01:54:17;;;;;;;12.30;7.72;;;;;;;20.27;58.75;100999.66;5183119;28;20055;-53
2022/09/13 01:56:59;;;;;;;16.08;8.57;;;;;;;20.31;58.98;101009.97;5199066;28;20048;-50
2022/09/13 01:59:41;;;;;;;13.45;8.40;;;;;;;20.30;58.98;101011.00;5189988;28;20426;-51
2022/09/13 02:02:19;;;;;;;14.55;8.93;;;;;;;20.27;59.14;101005.03;5179818;28;20498;-51
2022/09/13 02:04:58;;;;;;;13.52;8.48;;;;;;;20.27;59.06;101002.34;5186895;28;20045;-51
2022/09/13 02:07:36;;;;;;;16.20;7.80;;;;;;;20.35;59.11;101011.22;5171318;28;20115;-42
2022/09/13 02:10:15;;;;;;;15.90;8.75;;;;;;;20.34;59.20;101004.19;5192039;28;20376;-51
2022/09/13 02:12:51;;;;;;;15.50;8.98;;;;;;;20.29;59.17;100995.97;5189851;28;20032;-51
2022/09/13 02:15:27;;;;;;;15.82;8.90;;;;;;;20.23;59.53;100979.66;5183338;28;20497;-51
2022/09/13 02:18:07;;;;;;;16.52;8.85;;;;;;;20.26;59.22;100981.94;5186202;28;20764;-50
2022/09/13 02:20:46;;;;;;;14.13;9.85;;;;;;;20.32;59.32;100984.81;5180717;28;20450;-52
2022/09/13 02:23:24;;;;;;;16.13;9.45;;;;;;;20.30;59.58;100992.25;5191627;28;20057;-52
2022/09/13 02:25:57;;;;;;;18.50;10.15;;;;;;;20.30;59.45;100997.59;5193951;28;20053;-52
2022/09/13 02:28:36;;;;;;;17.85;9.68;;;;;;;20.27;59.47;100983.56;5186785;28;20512;-53
2022/09/13 02:31:10;;;;;;;18.23;9.75;;;;;;;20.25;59.61;100985.66;5185385;28;20184;-51
2022/09/13 02:33:47;;;;;;;18.67;11.07;;;;;;;20.36;59.63;101007.50;5188232;28;20250;-54
2022/09/13 02:36:25;;;;;;;14.88;9.73;;;;;;;20.36;59.60;100996.75;5187543;28;20558;-53
2022/09/13 02:39:02;;;;;;;14.35;9.32;;;;;;;20.34;59.69;100994.28;5188063;28;20052;-53
2022/09/13 02:41:44;;;;;;;18.88;10.25;;;;;;;20.37;59.72;101007.25;5184238;28;20464;-50
2022/09/13 02:44:23;;;;;;;21.98;11.45;;;;;;;20.35;59.77;101005.84;5187411;28;20718;-47
2022/09/13 02:47:15;;;;;;;14.88;10.63;;;;;;;20.34;59.83;100998.81;5194714;28;20075;-50
2022/09/13 02:49:57;;;;;;;14.05;9.60;;;;;;;20.36;59.88;100994.06;5182538;28;20431;-52
2022/09/13 02:52:44;;;;;;;13.27;9.88;;;;;;;20.37;59.90;100993.03;5190489;28;20426;-47
2022/09/13 02:55:24;;;;;;;17.45;9.65;;;;;;;20.38;60.10;100994.69;5185111;28;20488;-48
2022/09/13 02:58:03;;;;;;;14.10;8.88;;;;;;;20.43;59.98;101002.94;5182596;28;20122;-52
2022/09/13 03:00:36;;;;;;;13.52;9.75;;;;;;;20.43;60.13;101003.75;5187619;28;20045;-40
2022/09/13 03:03:12;;;;;;;12.52;9.45;;;;;;;20.41;60.03;101000.47;5194974;28;20048;-46
2022/09/13 03:05:45;;;;;;;17.08;8.77;;;;;;;20.40;59.82;101004.16;5189993;28;20401;-50
2022/09/13 03:08:19;;;;;;;15.15;9.32;;;;;;;20.38;59.97;100990.16;5191807;28;20040;-51
2022/09/13 03:11:03;;;;;;;13.52;8.45;;;;;;;20.43;59.91;101002.94;5189441;28;20049;-53
2022/09/13 03:14:17;;;;;;;15.18;7.78;;;;;;;20.42;60.08;100995.91;5196707;28;20396;-54
2022/09/13 03:17:04;;;;;;;;;;;;;;;20.44;60.08;101004.56;5182535;28;20053;-51
2022/09/13 03:19:56;;;;;;;10.65;7.47;;;;;;;20.34;60.07;100986.22;5189492;28;20078;-51
2022/09/13 03:23:09;;;;;;;10.95;9.18;;;;;;;20.22;60.34;100986.06;5196592;28;20033;-51
2022/09/13 03:26:17;;;;;;;11.68;9.93;;;;;;;20.11;60.47;100988.56;5148221;28;20049;-52
2022/09/13 03:29:06;;;;;;;16.10;9.80;;;;;;;20.11;60.53;100989.38;5185264;28;20415;-49
2022/09/13 03:31:50;;;;;;;18.77;10.63;;;;;;;20.06;60.61;100985.69;5189184;28;20052;-48
2022/09/13 03:34:35;;;;;;;18.92;10.20;;;;;;;20.06;61.02;100994.53;5193916;28;20052;-49
2022/09/13 03:37:17;;;;;;;14.23;9.68;;;;;;;20.03;60.95;100992.28;5192797;28;20104;-51
2022/09/13 03:39:57;;;;;;;14.17;9.80;;;;;;;19.96;60.77;100986.09;5187144;28;20265;-45
2022/09/13 03:42:37;;;;;;;11.73;9.00;;;;;;;19.96;60.81;100996.81;5186850;28;20128;-53
2022/09/13 03:45:11;;;;;;;11.85;8.65;;;;;;;19.85;60.79;100990.25;5199144;28;20048;-49
2022/09/13 03:47:46;;;;;;;12.23;8.60;;;;;;;19.85;61.20;100994.75;5182345;28;20056;-49
2022/09/13 03:50:22;;;;;;;14.93;7.97;;;;;;;19.84;60.98;100987.75;5190378;28;20048;-48
2022/09/13 03:53:00;;;;;;;11.77;9.23;;;;;;;19.83;60.97;101002.22;5195092;28;20461;-52
2022/09/13 03:55:35;;;;;;;17.13;10.02;;;;;;;19.79;60.91;100997.25;5189314;28;20049;-52
2022/09/13 03:58:12;;;;;;;11.30;8.95;;;;;;;19.77;61.05;100999.31;5192509;28;20425;-50
2022/09/13 04:00:45;;;;;;;12.63;9.65;;;;;;;19.77;61.16;100998.50;5193112;28;20048;-51
2022/09/13 04:03:18;;;;;;;;;;;;;;;19.80;61.05;101004.25;5180271;28;20045;-52
2022/09/13 04:05:50;;;;;;;15.00;9.63;;;;;;;19.73;61.08;100998.09;5196566;28;19921;-50
2022/09/13 04:08:23;;;;;;;14.88;11.40;;;;;;;19.68;61.17;100989.84;5191316;28;20045;-54
2022/09/13 04:10:55;;;;;;;13.10;11.23;;;;;;;19.69;61.10;100991.47;5188832;28;22924;-48
2022/09/13 04:13:29;;;;;;;19.17;12.00;;;;;;;19.63;61.18;100991.44;5193743;28;20057;-51
2022/09/13 04:16:03;;;;;;;17.48;13.07;;;;;;;19.64;61.16;100993.09;5182670;28;20181;-52
2022/09/13 04:18:36;;;;;;;19.35;13.52;;;;;;;19.62;61.23;100992.47;5182393;28;20494;-44
2022/09/13 04:21:09;;;;;;;;;;;;;;;19.69;61.20;101006.72;5192236;28;20051;-50
2022/09/13 04:23:42;;;;;;;15.38;11.32;;;;;;;19.60;61.19;100998.03;5186211;28;19921;-48
2022/09/13 04:26:14;;;;;;;21.25;12.40;;;;;;;19.65;61.31;101005.50;5184893;28;20053;-50
2022/09/13 04:28:48;;;;;;;15.00;11.05;;;;;;;19.71;61.36;101016.22;5181274;28;20435;-54
2022/09/13 04:31:21;;;;;;;19.05;12.88;;;;;;;19.66;60.94;101010.63;5188687;28;20060;-52
2022/09/13 04:33:53;;;;;;;16.63;11.85;;;;;;;19.63;61.11;101005.66;5190003;28;20044;-50
2022/09/13 04:36:27;;;;;;;16.20;12.30;;;;;;;19.60;61.29;101003.38;5194438;28;20074;-50
2022/09/13 04:38:59;;;;;;;14.02;11.27;;;;;;;19.65;61.36;101011.69;5186167;28;20071;-48
2022/09/13 04:41:33;;;;;;;16.85;10.43;;;;;;;19.69;61.25;101007.53;5181918;28;20049;-52
2022/09/13 04:44:07;;;;;;;16.70;9.82;;;;;;;19.65;61.29;100992.91;5182312;28;20140;-40
2022/09/13 04:46:40;;;;;;;14.90;10.70;;;;;;;19.71;61.27;101000.13;5189390;28;20040;-52
2022/09/13 04:49:15;;;;;;;12.30;10.38;;;;;;;19.76;61.50;101007.56;5196937;28;20439;-54
2022/09/13 04:51:48;;;;;;;15.88;9.88;;;;;;;19.83;61.43;101020.97;5200633;28;20482;-53
2022/09/13 04:54:21;;;;;;;;;;;;;;;19.89;61.54;101028.19;5204742;28;20060;-54
2022/09/13 04:56:54;;;;;;;17.55;10.00;;;;;;;19.87;61.32;101024.88;5193301;28;19959;-52
2022/09/13 04:59:27;;;;;;;14.63;8.85;;;;;;;19.91;61.19;101039.50;5182836;28;20053;-49
2022/09/13 05:02:00;;;;;;;16.52;6.97;;;;;;;19.84;61.36;101020.75;5181187;28;20635;-52
2022/09/13 05:04:33;;;;;;;11.00;6.00;;;;;;;19.90;61.19;101035.19;5191421;28;20052;-50
2022/09/13 05:07:05;;;;;;;14.55;7.22;;;;;;;19.89;61.07;101036.22;5181083;28;20493;-53
2022/09/13 05:09:38;;;;;;;17.33;8.20;;;;;;;19.78;61.06;101021.56;5180598;28;20492;-49
2022/09/13 05:12:11;;;;;;;17.88;5.13;;;;;;;19.72;61.16;101028.56;5185388;28;20499;-52
2022/09/13 05:14:45;;;;;;;10.05;4.25;;;;;;;19.73;61.13;101046.31;5192120;28;20057;-49
2022/09/13 05:17:18;;;;;;;12.43;3.85;;;;;;;19.70;61.27;101051.28;5192903;28;20051;-52
2022/09/13 05:19:50;;;;;;;7.47;4.03;;;;;;;19.66;61.41;101050.81;5197848;28;20044;-51
2022/09/13 05:22:22;;;;;;;8.98;4.18;;;;;;;19.66;61.13;101055.38;5194060;28;20553;-45
2022/09/13 05:24:55;;;;;;;12.50;3.55;;;;;;;19.61;61.24;101050.59;5194302;28;20068;-50
2022/09/13 05:27:28;;;;;;;7.78;3.05;;;;;;;19.62;61.19;101057.59;5190511;28;20111;-48
2022/09/13 05:30:01;;;;;;;6.72;3.40;;;;;;;19.57;61.16;101046.66;5187972;28;20055;-48
2022/09/13 05:32:34;;;;;;;8.27;2.97;;;;;;;19.61;60.96;101055.97;5197588;28;20500;-47
2022/09/13 05:35:08;;;;;;;13.25;2.58;;;;;;;19.63;60.96;101051.19;5190376;28;20532;-48
2022/09/13 05:37:40;;;;;;;7.60;2.92;;;;;;;19.67;60.88;101047.13;5185692;28;20044;-51
2022/09/13 05:40:13;;;;;;;3.85;2.55;;;;;;;19.75;60.97;101070.22;5180136;28;20432;-49
2022/09/13 05:43:01;;;;;;;6.53;2.63;;;;;;;19.68;61.00;101067.53;5168657;28;20041;-49
2022/09/13 05:45:35;;;;;;;9.48;2.78;;;;;;;19.68;60.97;101070.22;5178154;28;20625;-52
2022/09/13 05:48:08;;;;;;;6.63;1.73;;;;;;;19.69;60.98;101071.84;5189754;28;20071;-49
2022/09/13 05:50:40;;;;;;;7.85;2.60;;;;;;;19.73;61.03;101080.34;5186393;28;20052;-48
2022/09/13 05:53:13;;;;;;;11.18;2.80;;;;;;;19.72;61.00;101076.81;5180682;28;20045;-45
2022/09/13 05:55:45;;;;;;;5.68;2.20;;;;;;;19.79;61.03;101091.06;5183366;28;20045;-49
2022/09/13 05:58:18;;;;;;;4.85;2.13;;;;;;;19.74;61.18;101085.47;5201916;28;20071;-52
2022/09/13 06:00:55;;;;;;;6.68;2.55;;;;;;;19.69;61.41;101082.56;5203098;28;20045;-51
2022/09/13 06:03:28;;;;;;;9.90;2.83;;;;;;;19.65;61.31;101081.34;5201609;28;20056;-47
2022/09/13 06:06:01;;;;;;;4.93;2.70;;;;;;;19.71;61.31;101091.25;5189845;28;20059;-49
2022/09/13 06:08:54;;;;;;;8.50;2.80;;;;;;;19.80;61.34;101094.56;5184598;28;20053;-47
2022/09/13 06:11:27;;;;;;;6.22;2.33;;;;;;;19.78;61.34;101094.75;5194726;28;20491;-51
2022/09/13 06:13:59;;;;;;;;;;;;;;;19.89;61.18;101108.59;5192985;28;20047;-49
2022/09/13 06:16:48;;;;;;;3.58;1.67;;;;;;;19.88;61.68;101098.88;5179930;28;19921;-53
2022/09/13 06:19:21;;;;;;;6.57;2.40;;;;;;;19.76;61.57;101083.44;5179899;28;20363;-54
2022/09/13 06:21:53;;;;;;;5.57;1.48;;;;;;;19.82;61.59;101100.56;5180762;28;20389;-47
2022/09/13 06:24:26;;;;;;;8.07;2.63;;;;;;;19.86;61.54;101098.28;5181616;28;21664;-50
2022/09/13 06:26:59;;;;;;;7.70;1.67;;;;;;;19.93;61.45;101099.09;5193714;28;20071;-51
2022/09/13 06:29:31;;;;;;;10.43;1.65;;;;;;;19.92;61.59;101098.28;5182448;28;20125;-51
2022/09/13 06:32:06;;;;;;;5.97;1.33;;;;;;;19.95;61.51;101087.16;5181981;28;20429;-51
2022/09/13 06:34:38;;;;;;;6.70;1.88;;;;;;;20.06;61.44;101098.28;5173569;28;20052;-52
2022/09/13 06:37:11;;;;;;;4.05;1.67;;;;;;;20.08;61.48;101097.06;5180872;28;20048;-49
2022/09/13 06:39:44;;;;;;;3.63;1.10;;;;;;;19.98;61.58;101085.91;5178903;28;20045;-51
2022/09/13 06:42:16;;;;;;;5.43;1.52;;;;;;;20.08;61.60;101090.88;5181550;28;20051;-51
2022/09/13 06:44:49;;;;;;;12.90;3.42;;;;;;;20.08;61.72;101096.22;5180381;28;20051;-49
2022/09/13 06:47:23;;;;;;;3.65;1.60;;;;;;;20.17;61.47;101084.28;5184641;28;20408;-50
2022/09/13 06:49:56;;;;;;;3.70;1.40;;;;;;;20.32;61.18;101087.56;5178008;28;20053;-49
2022/09/13 06:52:28;;;;;;;;;;;;;;;20.53;60.97;101099.91;5183629;28;20520;-49
2022/09/13 06:55:01;;;;;;;6.93;1.83;;;;;;;20.56;60.83;101094.13;5177680;28;20206;-50
2022/09/13 06:57:33;;;;;;;6.32;2.15;;;;;;;20.62;60.81;101095.97;5180125;28;20064;-49
2022/09/13 07:00:08;;;;;;;9.98;1.60;;;;;;;20.64;60.63;101095.78;5190630;28;20417;-40
2022/09/13 07:02:42;;;;;;;5.30;2.03;;;;;;;20.64;60.50;101085.06;5174980;28;20040;-49
2022/09/13 07:05:16;;;;;;;4.25;1.88;;;;;;;20.83;60.25;101094.09;5177300;28;20037;-48
2022/09/13 07:07:52;;;;;;;8.75;2.50;;;;;;;20.83;60.03;101077.97;5198583;28;20493;-49
2022/09/13 07:10:25;;;;;;;10.45;2.38;;;;;;;20.93;59.99;101086.41;5197204;28;20048;-52
2022/09/13 07:12:57;;;;;;;7.82;2.60;;;;;;;21.18;59.61;101095.41;5184349;28;20076;-51
2022/09/13 07:15:30;;;;;;;11.38;3.28;;;;;;;21.43;59.23;101094.69;5180999;28;20068;-50
2022/09/13 07:18:04;;;;;;;8.82;1.90;;;;;;;21.56;59.07;101091.09;5176841;28;20393;-52
2022/09/13 07:20:37;;;;;;;9.10;2.70;;;;;;;21.56;58.97;101075.81;5173596;28;20041;-50
2022/09/13 07:23:09;;;;;;;10.45;3.83;;;;;;;21.51;59.26;101080.16;5182508;28;20048;-49
2022/09/13 07:25:42;;;;;;;10.45;3.13;;;;;;;21.58;59.20;101081.75;5194086;28;20443;-52
2022/09/13 07:28:14;;;;;;;6.82;2.80;;;;;;;21.74;59.09;101085.81;5188740;28;20443;-47
2022/09/13 07:30:47;;;;;;;6.25;2.13;;;;;;;21.90;58.73;101076.38;5189788;28;20330;-51
2022/09/13 07:33:21;;;;;;;9.98;2.45;;;;;;;22.09;58.51;101088.84;5190069;28;20056;-53
2022/09/13 07:35:58;;;;;;;6.47;2.50;;;;;;;22.20;58.32;101083.81;5184770;28;20409;-52
2022/09/13 07:38:31;;;;;;;9.13;2.22;;;;;;;22.31;58.08;101081.22;5191595;28;20051;-50
2022/09/13 07:41:05;;;;;;;5.70;1.80;;;;;;;22.49;57.73;101096.59;5191319;28;20048;-50
2022/09/13 07:43:38;;;;;;;3.35;1.10;;;;;;;22.33;57.63;101079.16;5186821;28;20471;-50
2022/09/13 07:46:12;;;;;;;;;;;;;;;22.43;57.59;101093.97;5191433;28;20444;-50
2022/09/13 07:48:46;;;;;;;;;;;;;;;23.13;56.80;101090.91;5190798;28;20344;-48
2022/09/13 07:51:21;;;;;;;4.50;1.30;;;;;;;24.64;54.39;101096.88;5193627;28;19970;-50
2022/09/13 07:53:58;;;;;;;8.00;1.73;;;;;;;24.85;53.00;101096.25;5187657;28;20048;-50
2022/09/13 07:56:33;;;;;;;1.83;0.93;;;;;;;24.73;52.54;101111.66;5188859;28;20045;-53
2022/09/13 07:59:15;;;;;;;8.68;1.13;;;;;;;24.36;52.77;101111.91;5186913;28;20424;-50
2022/09/13 08:01:49;;;;;;;4.85;1.40;;;;;;;24.08;53.24;101106.38;5182410;28;20435;-51
2022/09/13 08:04:26;;;;;;;4.45;1.17;;;;;;;24.49;52.67;101118.97;5190730;28;20048;-47
2022/09/13 08:06:58;;;;;;;2.50;1.30;;;;;;;24.39;51.88;101100.63;5198531;28;20095;-52
2022/09/13 08:09:31;;;;;;;7.63;1.60;;;;;;;24.20;52.31;101109.91;5193565;28;20470;-53
2022/09/13 08:12:04;;;;;;;8.15;1.27;;;;;;;24.06;52.15;101112.00;5191411;28;20048;-51
2022/09/13 08:14:37;;;;;;;6.18;0.90;;;;;;;23.85;52.50;101104.47;5187238;28;20040;-42
2022/09/13 08:17:09;;;;;;;8.40;1.80;;;;;;;23.75;52.48;101117.66;5194408;28;20041;-52
2022/09/13 08:19:43;;;;;;;4.97;1.00;;;;;;;23.66;52.94;101125.22;5194629;28;20040;-52
2022/09/13 08:22:16;;;;;;;4.20;1.08;;;;;;;23.70;52.74;101119.19;5191803;28;20413;-53
2022/09/13 08:24:48;;;;;;;3.97;1.10;;;;;;;23.77;52.57;101137.97;5184836;28;20045;-51
2022/09/13 08:27:21;;;;;;;7.13;1.80;;;;;;;23.76;52.61;101125.53;5192708;28;20052;-52
2022/09/13 08:29:54;;;;;;;5.82;1.92;;;;;;;24.08;52.18;101136.06;5188562;28;20050;-54
2022/09/13 08:32:26;;;;;;;;;;;;;;;24.26;52.03;101138.66;5189473;28;20739;-51
2022/09/13 08:35:01;;;;;;;3.40;1.30;;;;;;;24.57;51.41;101136.72;5190092;28;19924;-53
2022/09/13 08:37:34;;;;;;;4.72;1.02;;;;;;;25.36;50.60;101128.09;5180626;28;20044;-48
2022/09/13 08:40:08;;;;;;;4.78;1.30;;;;;;;25.60;49.82;101137.75;5182525;28;20103;-41
2022/09/13 08:42:51;;;;;;;7.80;1.08;;;;;;;25.51;49.64;101140.03;5185233;28;20442;-54
2022/09/13 08:45:24;;;;;;;5.78;1.17;;;;;;;25.34;49.67;101130.25;5194543;28;20426;-52
2022/09/13 08:48:02;;;;;;;6.10;1.10;;;;;;;25.65;49.66;101143.28;5189487;28;20061;-52
2022/09/13 08:50:38;;;;;;;5.18;1.45;;;;;;;25.69;49.38;101141.72;5190814;28;20257;-49
2022/09/13 08:53:19;;;;;;;3.60;0.98;;;;;;;25.93;48.85;101137.03;5179832;28;20041;-50
2022/09/13 08:56:00;;;;;;;7.63;1.33;;;;;;;26.15;48.48;101137.13;5188145;28;20045;-51
2022/09/13 08:59:05;;;;;;;3.00;1.00;;;;;;;27.07;47.62;101133.03;5191142;28;20063;-52
2022/09/13 09:01:54;;;;;;;7.28;1.52;;;;;;;28.11;45.93;101124.88;5179572;28;20099;-46
2022/09/13 09:04:44;;;;;;;10.02;1.33;;;;;;;28.93;44.11;101131.66;5196437;28;20074;-53
2022/09/13 09:07:21;;;;;;;5.95;1.23;;;;;;;29.09;43.87;101127.13;5188801;28;20398;-54
2022/09/13 09:09:56;;;;;;;4.85;0.85;;;;;;;29.34;43.24;101127.19;5192523;28;20116;-52
2022/09/13 09:12:38;;;;;;;6.30;0.90;;;;;;;29.71;42.51;101134.38;5186563;28;20443;-56
2022/09/13 09:15:19;;;;;;;5.13;1.42;;;;;;;29.81;42.01;101139.81;5180999;28;20055;-52
2022/09/13 09:18:00;;;;;;;6.47;0.93;;;;;;;29.87;41.34;101136.00;5185138;28;20057;-52
2022/09/13 09:20:38;;;;;;;3.60;0.95;;;;;;;29.98;41.34;101146.91;5188847;28;20060;-52
2022/09/13 09:23:18;;;;;;;4.80;1.52;;;;;;;29.88;41.43;101137.63;5190749;28;20183;-43
2022/09/13 09:25:55;;;;;;;3.83;1.00;;;;;;;29.66;41.30;101150.69;5187641;28;20057;-56
2022/09/13 09:28:30;;;;;;;4.50;0.90;;;;;;;29.03;41.80;101137.16;5196141;28;20060;-52
2022/09/13 09:31:08;;;;;;;5.18;1.38;;;;;;;28.48;42.60;101142.00;5190380;28;20053;-52
2022/09/13 09:33:59;;;;;;;4.45;1.35;;;;;;;28.14;43.23;101156.94;5193197;28;20044;-56
2022/09/13 09:36:40;;;;;;;6.15;0.60;;;;;;;27.71;43.74;101137.00;5188154;28;20045;-52
2022/09/13 09:39:16;;;;;;;4.28;0.95;;;;;;;27.62;43.74;101144.78;5191511;28;20466;-53
2022/09/13 09:42:10;;;;;;;6.22;1.00;;;;;;;27.50;43.75;101136.81;5187038;28;20534;-52
2022/09/13 09:44:48;;;;;;;3.15;1.00;;;;;;;27.36;43.98;101149.13;5186564;28;20048;-53
2022/09/13 09:47:24;;;;;;;2.72;0.85;;;;;;;27.31;43.87;101144.44;5189319;28;20051;-54
2022/09/13 09:50:09;;;;;;;2.38;0.55;;;;;;;27.37;43.94;101142.63;5181298;28;21801;-52
2022/09/13 09:52:49;;;;;;;2.28;1.00;;;;;;;27.23;44.02;101138.69;5186494;28;20044;-54
2022/09/13 09:55:28;;;;;;;7.38;1.30;;;;;;;27.22;43.88;101145.97;5180856;28;20149;-52
2022/09/13 09:58:05;;;;;;;9.05;1.45;;;;;;;27.09;43.99;101141.72;5182819;28;20401;-53
2022/09/13 10:00:51;;;;;;;4.65;1.13;;;;;;;27.07;43.83;101146.59;5193397;28;20037;-55
2022/09/13 10:03:28;;;;;;;7.05;1.10;;;;;;;27.08;44.06;101140.09;5187846;28;20049;-53
2022/09/13 10:06:14;;;;;;;4.57;0.77;;;;;;;26.93;43.90;101131.75;5193856;28;20047;-55
2022/09/13 10:08:56;;;;;;;6.40;1.30;;;;;;;27.00;43.88;101129.69;5193831;28;20055;-51
2022/09/13 10:11:49;;;;;;;8.10;1.03;;;;;;;27.06;44.02;101142.22;5198172;28;20045;-51
2022/09/13 10:14:37;;;;;;;3.22;0.90;;;;;;;26.86;44.09;101121.13;5187513;28;20111;-53
2022/09/13 10:17:21;;;;;;;5.03;1.67;;;;;;;26.73;43.96;101132.31;5183238;28;20430;-51
2022/09/13 10:20:00;;;;;;;2.80;0.88;;;;;;;26.61;44.15;101121.59;5183147;28;20051;-51
2022/09/13 10:22:34;;;;;;;5.35;0.95;;;;;;;26.65;44.34;101133.56;5184520;28;20052;-50
2022/09/13 10:25:16;;;;;;;6.38;1.00;;;;;;;26.66;44.34;101120.84;5187395;28;20543;-53
2022/09/13 10:27:53;;;;;;;13.70;1.83;;;;;;;26.77;44.09;101119.09;5182976;28;20118;-51
2022/09/13 10:30:33;;;;;;;2.58;0.93;;;;;;;26.81;43.95;101114.81;5178641;28;20383;-52
2022/09/13 10:33:07;;;;;;;8.52;1.42;;;;;;;26.67;43.30;101123.31;5192180;28;20131;-51
2022/09/13 10:35:39;;;;;;;5.00;1.33;;;;;;;26.47;43.75;101122.97;5181020;28;20095;-52
2022/09/13 10:38:24;;;;;;;5.68;1.52;;;;;;;26.43;43.70;101132.69;5193457;28;20443;-50
2022/09/13 10:40:56;;;;;;;8.82;1.65;;;;;;;26.31;43.75;101124.63;5182198;28;20460;-53
2022/09/13 10:43:32;;;;;;;5.20;0.95;;;;;;;26.36;44.19;101132.84;5184735;28;20479;-55
2022/09/13 10:46:10;;;;;;;5.22;1.10;;;;;;;26.31;44.32;101126.53;5173533;28;20048;-53
2022/09/13 10:48:54;;;;;;;6.90;1.02;;;;;;;26.40;44.42;101133.16;5178823;28;20477;-51
2022/09/13 10:51:36;;;;;;;2.47;0.90;;;;;;;26.40;44.05;101123.16;5180540;28;20107;-53
2022/09/13 10:54:23;;;;;;;1.67;0.60;;;;;;;26.49;44.01;101139.84;5182534;28;20510;-53
2022/09/13 10:57:33;;;;;;;4.70;1.25;;;;;;;26.53;44.20;101130.13;5211939;28;20040;-54
2022/09/13 11:00:12;;;;;;;6.25;1.83;;;;;;;26.54;44.13;101131.78;5185293;28;20067;-50
2022/09/13 11:03:00;;;;;;;9.07;1.70;;;;;;;26.53;44.22;101134.75;5186009;28;20326;-52
2022/09/13 11:05:37;;;;;;;4.93;1.25;;;;;;;26.57;44.04;101134.00;5192473;28;20052;-53
2022/09/13 11:08:32;;;;;;;6.53;1.40;;;;;;;26.53;44.05;101127.44;5175843;28;20085;-51
2022/09/13 11:11:18;;;;;;;4.57;1.13;;;;;;;26.58;44.09;101126.69;5191365;28;20048;-54
2022/09/13 11:14:08;;;;;;;4.10;1.42;;;;;;;26.48;44.03;101123.78;5186558;28;20049;-52
2022/09/13 11:16:54;;;;;;;6.72;0.98;;;;;;;26.49;43.71;101126.28;5186432;28;20128;-54
2022/09/13 11:19:55;;;;;;;5.55;1.33;;;;;;;26.40;43.39;101131.28;5181453;28;22607;-52
2022/09/13 11:22:44;;;;;;;9.65;1.33;;;;;;;25.99;43.95;101125.22;5178415;28;20064;-56
2022/09/13 11:25:42;;;;;;;7.32;1.15;;;;;;;26.04;44.00;101119.06;5183551;28;20112;-52
2022/09/13 11:28:25;;;;;;;6.85;1.50;;;;;;;26.04;44.13;101123.66;5174762;28;20508;-54
2022/09/13 11:31:25;;;;;;;9.10;1.75;;;;;;;25.93;44.07;101122.69;5178741;28;20122;-51
2022/09/13 11:34:16;;;;;;;1.58;0.70;;;;;;;25.72;44.29;101116.88;5174546;28;20056;-52
2022/09/13 11:37:12;;;;;;;9.77;1.88;;;;;;;25.63;43.75;101110.22;5180512;28;20055;-52
2022/09/13 11:39:51;;;;;;;5.07;1.25;;;;;;;25.49;44.74;101111.59;5180551;28;20072;-53
2022/09/13 11:42:38;;;;;;;2.35;0.70;;;;;;;25.42;44.74;101105.50;5175266;28;20045;-54
2022/09/13 11:45:22;;;;;;;5.47;1.38;;;;;;;25.44;45.33;101108.81;5186358;28;20472;-53
2022/09/13 11:48:35;;;;;;;4.18;1.40;;;;;;;25.56;45.50;101101.44;5188563;28;20476;-54
2022/09/13 11:51:19;;;;;;;4.32;1.27;;;;;;;25.77;44.52;101118.88;5138288;28;20114;-54
2022/09/13 11:54:16;;;;;;;3.90;0.98;;;;;;;25.87;44.18;101107.44;5187977;28;20048;-53
2022/09/13 11:56:54;;;;;;;5.03;1.08;;;;;;;25.98;44.27;101098.41;5189883;28;20053;-52
2022/09/13 11:59:38;;;;;;;4.18;0.75;;;;;;;25.96;43.48;101100.53;5192857;28;20480;-53
2022/09/13 12:02:20;;;;;;;2.35;0.70;;;;;;;26.02;44.40;101099.56;5183015;28;20442;-51
2022/09/13 12:04:59;;;;;;;7.20;1.05;;;;;;;26.01;44.91;101103.31;5181817;28;20041;-53
2022/09/13 12:07:42;;;;;;;5.95;1.30;;;;;;;25.98;44.20;101095.69;5177923;28;20446;-52
2022/09/13 12:10:22;;;;;;;8.60;0.80;;;;;;;25.82;44.46;101091.09;5172060;28;20443;-52
2022/09/13 12:12:56;;;;;;;5.95;1.45;;;;;;;25.81;44.70;101097.56;5178259;28;20049;-53
2022/09/13 12:15:37;;;;;;;4.03;1.05;;;;;;;25.81;44.78;101081.31;5192210;28;20377;-52
2022/09/13 12:18:16;;;;;;;5.65;1.48;;;;;;;25.65;44.93;101094.59;5178679;28;20208;-53